createdAt,value
2023-04-15T00:00:50.905Z,5.70
2023-04-15T00:05:52.748Z,5.70
2023-04-15T00:10:54.728Z,5.70
2023-04-15T00:15:56.601Z,5.60
2023-04-15T00:20:58.933Z,5.60
2023-04-15T00:26:00.729Z,5.60
2023-04-15T00:31:02.627Z,5.60
2023-04-15T00:36:06.257Z,5.60
2023-04-15T00:41:09.046Z,5.60
2023-04-15T00:46:14.332Z,5.60
2023-04-15T00:51:16.414Z,5.60
2023-04-15T00:56:20.202Z,5.60
2023-04-15T01:01:24.059Z,5.60
2023-04-15T01:06:27.297Z,5.60
2023-04-15T01:11:29.588Z,5.60
2023-04-15T01:16:32.096Z,5.50
2023-04-15T01:21:36.200Z,5.60
2023-04-15T01:26:40.983Z,5.60
2023-04-15T01:31:54.154Z,5.60
2023-04-15T01:36:55.973Z,5.50
2023-04-15T01:41:58.132Z,5.50
2023-04-15T01:47:00.671Z,5.50
2023-04-15T01:52:02.459Z,5.50
2023-04-15T01:57:04.839Z,5.50
2023-04-15T02:02:06.731Z,5.50
2023-04-15T02:07:08.567Z,5.50
2023-04-15T02:12:10.612Z,5.40
2023-04-15T02:17:12.622Z,5.40
2023-04-15T02:22:18.451Z,5.40
2023-04-15T02:27:22.611Z,5.40
2023-04-15T02:32:25.584Z,5.40
2023-04-15T02:37:31.100Z,5.50
2023-04-15T02:42:33.232Z,5.50
2023-04-15T02:47:36.674Z,5.50
2023-04-15T02:52:41.909Z,5.50
2023-04-15T02:57:44.395Z,5.40
2023-04-15T03:02:47.166Z,5.40
2023-04-15T03:07:49.404Z,5.40
2023-04-15T03:12:51.652Z,5.40
2023-04-15T03:17:56.520Z,5.40
2023-04-15T03:22:59.856Z,5.40
2023-04-15T03:28:01.862Z,5.40
2023-04-15T03:33:03.849Z,5.40
2023-04-15T03:38:05.871Z,5.40
2023-04-15T03:43:07.688Z,5.40
2023-04-15T03:48:17.191Z,5.30
2023-04-15T03:53:22.702Z,5.30
2023-04-15T03:58:24.677Z,5.20
2023-04-15T04:03:27.418Z,5.20
2023-04-15T04:08:29.346Z,5.10
2023-04-15T04:13:31.110Z,5.10
2023-04-15T04:18:33.374Z,5.10
2023-04-15T04:23:39.457Z,5.00
2023-04-15T04:28:41.562Z,5.00
2023-04-15T04:33:43.488Z,4.90
2023-04-15T04:38:45.312Z,4.90
2023-04-15T04:43:47.126Z,4.90
2023-04-15T04:48:48.940Z,4.80
2023-04-15T04:53:50.858Z,4.80
2023-04-15T04:58:52.955Z,4.80
2023-04-15T05:03:54.990Z,4.80
2023-04-15T05:08:56.963Z,4.80
2023-04-15T05:13:59.852Z,4.80
2023-04-15T05:19:01.864Z,4.80
2023-04-15T05:24:04.448Z,4.80
2023-04-15T05:29:06.255Z,4.80
2023-04-15T05:34:08.306Z,4.80
2023-04-15T05:39:10.093Z,4.80
2023-04-15T05:44:11.966Z,4.80
2023-04-15T05:49:13.729Z,4.80
2023-04-15T05:54:16.948Z,4.90
2023-04-15T05:59:20.138Z,5.00
2023-04-15T06:04:22.825Z,4.80
2023-04-15T06:09:24.835Z,4.80
2023-04-15T06:14:26.570Z,4.90
2023-04-15T06:19:28.309Z,4.90
2023-04-15T06:24:30.426Z,5.00
2023-04-15T06:29:32.255Z,5.00
2023-04-15T06:34:34.474Z,5.00
2023-04-15T06:39:36.431Z,5.00
2023-04-15T06:44:38.402Z,5.10
2023-04-15T06:49:40.520Z,5.10
2023-04-15T06:54:42.933Z,5.00
2023-04-15T06:59:44.710Z,5.10
2023-04-15T07:04:46.546Z,5.20
2023-04-15T07:09:48.355Z,5.20
2023-04-15T07:14:50.134Z,5.30
2023-04-15T07:19:52.063Z,5.40
2023-04-15T07:24:53.847Z,5.40
2023-04-15T07:29:55.640Z,5.30
2023-04-15T07:34:57.654Z,5.40
2023-04-15T07:39:59.426Z,5.40
2023-04-15T07:45:01.282Z,5.50
2023-04-15T07:50:03.183Z,5.50
2023-04-15T07:55:08.931Z,5.60
2023-04-15T08:00:11.402Z,5.70
2023-04-15T08:05:16.065Z,5.70
2023-04-15T08:10:18.018Z,5.80
2023-04-15T08:15:20.535Z,5.90
2023-04-15T08:20:22.297Z,5.90
2023-04-15T08:25:24.113Z,5.90
2023-04-15T08:30:26.043Z,5.90
2023-04-15T08:35:27.812Z,5.90
2023-04-15T08:40:40.913Z,5.90
2023-04-15T08:45:46.214Z,6.00
2023-04-15T08:50:49.116Z,5.90
2023-04-15T08:55:52.883Z,5.90
2023-04-15T09:00:56.629Z,5.90
2023-04-15T09:05:59.389Z,6.10
2023-04-15T09:11:02.941Z,6.10
2023-04-15T09:16:06.291Z,6.10
2023-04-15T09:21:11.289Z,6.20
2023-04-15T09:26:13.503Z,6.20
2023-04-15T09:31:15.534Z,6.20
2023-04-15T09:36:17.325Z,6.40
2023-04-15T09:41:19.669Z,6.40
2023-04-15T09:46:40.339Z,6.40
2023-04-15T09:51:48.533Z,6.40
2023-04-15T09:56:56.191Z,6.50
2023-04-15T10:01:58.452Z,6.50
2023-04-15T10:07:02.535Z,6.50
2023-04-15T10:12:06.146Z,6.40
2023-04-15T10:17:11.038Z,6.40
2023-04-15T10:22:14.362Z,6.40
2023-04-15T10:27:18.228Z,6.40
2023-04-15T10:32:21.446Z,6.40
2023-04-15T10:37:35.935Z,6.50
2023-04-15T10:42:37.902Z,6.50
2023-04-15T10:47:39.717Z,6.50
2023-04-15T10:52:42.133Z,6.60
2023-04-15T10:57:44.933Z,6.70
2023-04-15T11:02:51.837Z,6.60
2023-04-15T11:07:58.649Z,6.60
2023-04-15T11:13:27.082Z,6.70
2023-04-15T11:18:30.668Z,6.50
2023-04-15T11:23:34.341Z,6.50
2023-04-15T11:28:38.289Z,6.60
2023-04-15T11:34:01.452Z,6.60
2023-04-15T11:39:07.184Z,6.60
2023-04-15T11:44:18.911Z,6.70
2023-04-15T11:49:34.954Z,6.50
2023-04-15T11:54:37.536Z,6.50
2023-04-15T11:59:46.351Z,6.60
2023-04-15T12:04:48.318Z,6.70
2023-04-15T12:09:56.697Z,6.70
2023-04-15T12:14:59.443Z,6.80
2023-04-15T12:20:01.209Z,6.80
2023-04-15T12:25:03.335Z,6.80
2023-04-15T12:30:06.168Z,6.80
2023-04-15T12:35:09.205Z,6.90
2023-04-15T12:40:11.279Z,7.10
2023-04-15T12:45:13.082Z,7.20
2023-04-15T12:50:14.852Z,7.40
2023-04-15T12:55:19.593Z,7.30
2023-04-15T13:00:21.355Z,7.30
2023-04-15T13:05:23.174Z,7.30
2023-04-15T13:10:24.947Z,7.30
2023-04-15T13:15:26.672Z,7.20
2023-04-15T13:20:28.586Z,7.20
2023-04-15T13:25:30.745Z,7.20
2023-04-15T13:30:32.554Z,7.20
2023-04-15T13:35:34.589Z,7.20
2023-04-15T13:40:36.455Z,7.20
2023-04-15T13:45:38.741Z,7.20
2023-04-15T13:50:45.336Z,7.20
2023-04-15T13:55:47.230Z,7.20
2023-04-15T14:00:49.020Z,7.10
2023-04-15T14:05:56.127Z,7.00
2023-04-15T14:10:58.268Z,7.00
2023-04-15T14:16:00.659Z,7.00
2023-04-15T14:21:02.716Z,7.10
2023-04-15T14:26:05.026Z,7.30
2023-04-15T14:31:07.284Z,7.40
2023-04-15T14:36:09.790Z,7.40
2023-04-15T14:41:12.293Z,7.50
2023-04-15T14:46:14.535Z,7.50
2023-04-15T14:51:16.343Z,7.50
2023-04-15T14:56:18.267Z,7.60
2023-04-15T15:01:20.832Z,7.50
2023-04-15T15:06:22.840Z,7.40
2023-04-15T15:11:24.644Z,7.40
2023-04-15T15:16:27.759Z,7.50
2023-04-15T15:21:29.623Z,7.40
2023-04-15T15:26:31.697Z,7.30
2023-04-15T15:31:35.108Z,7.30
2023-04-15T15:36:36.883Z,7.30
2023-04-15T15:41:38.714Z,7.40
2023-04-15T15:46:40.812Z,7.40
2023-04-15T15:51:42.768Z,7.30
2023-04-15T15:56:44.972Z,7.20
2023-04-15T16:01:48.320Z,7.30
2023-04-15T16:06:50.428Z,7.20
2023-04-15T16:11:52.270Z,7.20
2023-04-15T16:16:54.070Z,7.10
2023-04-15T16:21:56.251Z,7.10
2023-04-15T16:26:59.308Z,7.10
2023-04-15T16:32:01.113Z,7.10
2023-04-15T16:37:03.883Z,7.10
2023-04-15T16:42:05.638Z,7.10
2023-04-15T16:47:09.670Z,7.10
2023-04-15T16:52:11.387Z,7.00
2023-04-15T16:57:13.228Z,7.00
2023-04-15T17:02:15.598Z,7.00
2023-04-15T17:07:17.434Z,7.00
2023-04-15T17:12:19.202Z,7.00
2023-04-15T17:17:22.465Z,7.00
2023-04-15T17:22:24.356Z,7.00
2023-04-15T17:27:28.682Z,7.00
2023-04-15T17:32:34.193Z,7.00
2023-04-15T17:37:36.289Z,7.00
2023-04-15T17:42:38.056Z,7.00
2023-04-15T17:47:39.999Z,7.00
2023-04-15T17:52:41.991Z,7.00
2023-04-15T17:57:46.367Z,6.90
2023-04-15T18:02:48.843Z,6.90
2023-04-15T18:07:52.535Z,6.90
2023-04-15T18:12:54.282Z,6.80
2023-04-15T18:17:56.122Z,6.70
2023-04-15T18:22:58.036Z,6.70
2023-04-15T18:28:00.089Z,6.70
2023-04-15T18:33:01.932Z,6.60
2023-04-15T18:38:03.781Z,6.70
2023-04-15T18:43:05.646Z,6.70
2023-04-15T18:48:08.637Z,6.60
2023-04-15T18:53:11.517Z,6.70
2023-04-15T18:58:13.313Z,6.70
2023-04-15T19:03:15.094Z,6.70
2023-04-15T19:08:18.039Z,6.60
2023-04-15T19:13:21.256Z,6.60
2023-04-15T19:18:23.114Z,6.60
2023-04-15T19:23:25.051Z,6.60
2023-04-15T19:28:28.297Z,6.60
2023-04-15T19:33:31.555Z,6.60
2023-04-15T19:38:37.766Z,6.60
2023-04-15T19:43:39.576Z,6.60
2023-04-15T19:48:41.365Z,6.50
2023-04-15T19:53:43.580Z,6.50
2023-04-15T19:58:47.470Z,6.50
2023-04-15T20:03:49.412Z,6.50
2023-04-15T20:08:51.832Z,6.40
2023-04-15T20:13:53.619Z,6.40
2023-04-15T20:18:55.471Z,6.40
2023-04-15T20:23:57.308Z,6.40
2023-04-15T20:29:00.412Z,6.30
2023-04-15T20:34:02.343Z,6.30
2023-04-15T20:39:04.501Z,6.30
2023-04-15T20:44:06.505Z,6.30
2023-04-15T20:49:10.570Z,6.30
2023-04-15T20:54:12.335Z,6.30
2023-04-15T20:59:14.205Z,6.30
2023-04-15T21:04:16.384Z,6.20
2023-04-15T21:09:18.814Z,6.20
2023-04-15T21:14:20.574Z,6.20
2023-04-15T21:19:22.292Z,6.10
2023-04-15T21:24:24.077Z,6.20
2023-04-15T21:29:26.081Z,6.20
2023-04-15T21:34:27.847Z,6.10
2023-04-15T21:39:29.638Z,6.10
2023-04-15T21:44:31.367Z,6.10
2023-04-15T21:49:33.234Z,6.00
2023-04-15T21:54:36.789Z,6.00
2023-04-15T21:59:38.645Z,6.00
2023-04-15T22:04:40.446Z,6.00
2023-04-15T22:09:42.196Z,6.00
2023-04-15T22:14:44.021Z,5.90
2023-04-15T22:19:46.769Z,5.90
2023-04-15T22:24:48.500Z,5.90
2023-04-15T22:29:50.224Z,5.80
2023-04-15T22:34:52.344Z,5.80
2023-04-15T22:39:54.107Z,5.80
2023-04-15T22:44:56.076Z,5.70
2023-04-15T22:49:57.883Z,5.60
2023-04-15T22:54:59.795Z,5.60
2023-04-15T23:00:04.406Z,5.50
2023-04-15T23:05:12.588Z,5.40
2023-04-15T23:10:15.693Z,5.40
2023-04-15T23:15:19.613Z,5.30
2023-04-15T23:20:21.379Z,5.30
2023-04-15T23:25:23.181Z,5.30
2023-04-15T23:30:24.968Z,5.30
2023-04-15T23:35:27.334Z,5.20
2023-04-15T23:40:29.094Z,5.20
2023-04-15T23:45:30.854Z,5.00
2023-04-15T23:50:32.586Z,5.00
2023-04-15T23:55:34.538Z,5.10
